createdAt,value
2017-11-10T00:02:02.821Z,7.6
2017-11-10T00:07:03.604Z,7.6
2017-11-10T00:12:02.873Z,7.7
2017-11-10T00:17:03.025Z,7.8
2017-11-10T00:22:03.338Z,7.9
2017-11-10T00:27:03.360Z,8.0
2017-11-10T00:32:03.459Z,8.1
2017-11-10T00:37:03.493Z,8.1
2017-11-10T00:42:03.511Z,8.2
2017-11-10T00:47:03.506Z,8.1
2017-11-10T00:52:03.281Z,8.1
2017-11-10T00:57:03.090Z,7.9
2017-11-10T01:02:03.274Z,7.6
2017-11-10T01:07:03.160Z,7.5
2017-11-10T01:12:03.406Z,7.2
2017-11-10T01:17:03.536Z,7.2
2017-11-10T01:22:03.530Z,7.1
2017-11-10T01:27:03.630Z,7.0
2017-11-10T01:32:03.477Z,6.9
2017-11-10T01:37:03.155Z,6.7
2017-11-10T01:42:03.130Z,6.5
2017-11-10T01:47:03.169Z,6.3
2017-11-10T01:52:03.025Z,6.2
2017-11-10T01:57:03.285Z,6.2
2017-11-10T02:02:03.910Z,6.0
2017-11-10T02:07:02.977Z,5.9
2017-11-10T02:12:03.500Z,5.9
2017-11-10T02:17:03.616Z,5.8
2017-11-10T02:22:02.788Z,5.8
2017-11-10T02:27:02.834Z,5.8
2017-11-10T02:32:02.994Z,5.7
2017-11-10T02:37:03.549Z,5.7
2017-11-10T02:42:03.569Z,5.7
2017-11-10T02:47:02.742Z,5.6
2017-11-10T02:52:03.387Z,5.8
2017-11-10T02:57:03.487Z,6.0
2017-11-10T03:02:03.454Z,6.0
2017-11-10T03:07:03.550Z,6.0
2017-11-10T03:12:03.586Z,6.2
2017-11-10T03:17:03.548Z,6.1
2017-11-10T03:22:02.771Z,6.3
2017-11-10T03:27:02.953Z,6.5
2017-11-10T03:32:03.038Z,6.6
2017-11-10T03:37:02.715Z,6.6
2017-11-10T03:42:03.031Z,6.7
2017-11-10T03:47:03.299Z,6.7
2017-11-10T03:52:03.566Z,6.7
2017-11-10T03:57:02.973Z,6.7
2017-11-10T04:02:03.264Z,6.6
2017-11-10T04:07:03.609Z,6.6
2017-11-10T04:12:03.065Z,6.6
2017-11-10T04:17:03.463Z,6.6
2017-11-10T04:22:02.725Z,6.6
2017-11-10T04:27:03.093Z,6.5
2017-11-10T04:32:03.337Z,6.5
2017-11-10T04:37:03.693Z,6.5
2017-11-10T04:42:02.920Z,6.5
2017-11-10T04:47:03.212Z,6.5
2017-11-10T04:52:03.516Z,6.6
2017-11-10T04:57:02.884Z,6.7
2017-11-10T05:02:03.209Z,6.7
2017-11-10T05:07:03.540Z,6.7
2017-11-10T05:12:03.014Z,6.9
2017-11-10T05:17:03.291Z,7.1
2017-11-10T05:22:02.733Z,7.0
2017-11-10T05:27:03.083Z,7.0
2017-11-10T05:32:03.318Z,7.0
2017-11-10T05:37:03.606Z,6.9
2017-11-10T05:42:02.804Z,6.9
2017-11-10T05:47:03.122Z,6.8
2017-11-10T05:52:03.392Z,6.7
2017-11-10T05:57:02.684Z,6.7
2017-11-10T06:02:09.943Z,6.7
2017-11-10T06:07:03.533Z,6.8
2017-11-10T06:12:03.149Z,6.7
2017-11-10T06:17:14.038Z,6.8
2017-11-10T06:22:02.972Z,6.7
2017-11-10T06:27:03.336Z,6.8
2017-11-10T06:32:17.280Z,6.8
2017-11-10T06:37:02.941Z,6.8
2017-11-10T06:42:02.824Z,6.8
2017-11-10T06:47:14.122Z,6.8
2017-11-10T06:52:03.032Z,6.8
2017-11-10T06:57:03.587Z,6.8
2017-11-10T07:02:13.632Z,6.8
2017-11-10T07:07:03.547Z,6.7
2017-11-10T07:12:03.226Z,6.8
2017-11-10T07:17:14.001Z,6.8
2017-11-10T07:22:02.721Z,6.8
2017-11-10T07:27:03.255Z,6.8
2017-11-10T07:32:18.130Z,6.8
2017-11-10T07:37:03.075Z,6.8
2017-11-10T07:42:03.396Z,6.8
2017-11-10T07:47:13.803Z,6.7
2017-11-10T07:52:02.852Z,6.8
2017-11-10T07:57:03.134Z,6.9
2017-11-10T08:02:13.865Z,7.1
2017-11-10T08:07:02.892Z,7.1
2017-11-10T08:12:03.499Z,7.1
2017-11-10T08:17:13.552Z,7.1
2017-11-10T08:22:03.423Z,7.1
2017-11-10T08:27:02.810Z,7.1
2017-11-10T08:32:13.525Z,7.1
2017-11-10T08:37:02.731Z,7.1
2017-11-10T08:42:03.199Z,7.1
2017-11-10T08:47:14.107Z,7.2
2017-11-10T08:52:02.960Z,7.3
2017-11-10T08:57:03.320Z,7.2
2017-11-10T09:02:13.437Z,7.3
2017-11-10T09:07:03.213Z,7.3
2017-11-10T09:12:02.896Z,7.4
2017-11-10T09:17:13.993Z,7.5
2017-11-10T09:22:02.786Z,7.4
2017-11-10T09:27:03.244Z,7.4
2017-11-10T09:32:13.929Z,7.4
2017-11-10T09:37:03.077Z,7.4
2017-11-10T09:42:03.392Z,7.4
2017-11-10T09:47:13.444Z,7.4
2017-11-10T09:52:03.285Z,7.4
2017-11-10T09:57:02.710Z,7.5
2017-11-10T10:02:13.699Z,7.6
2017-11-10T10:07:02.814Z,7.5
2017-11-10T10:12:03.347Z,7.4
2017-11-10T10:17:13.349Z,7.4
2017-11-10T10:22:03.314Z,7.5
2017-11-10T10:27:02.790Z,7.5
2017-11-10T10:32:17.513Z,7.7
2017-11-10T10:37:03.492Z,7.6
2017-11-10T10:42:02.919Z,7.8
2017-11-10T10:47:17.260Z,7.9
2017-11-10T10:52:02.733Z,7.9
2017-11-10T10:57:03.210Z,7.8
2017-11-10T11:02:13.129Z,7.5
2017-11-10T11:07:03.273Z,7.5
2017-11-10T11:12:02.855Z,7.4
2017-11-10T11:17:13.950Z,7.3
2017-11-10T11:22:02.725Z,7.2
2017-11-10T11:27:03.232Z,7.0
2017-11-10T11:32:13.955Z,7.0
2017-11-10T11:37:03.661Z,7.0
2017-11-10T11:42:03.112Z,6.9
2017-11-10T11:47:13.922Z,7.0
2017-11-10T11:52:02.964Z,6.9
2017-11-10T11:57:03.384Z,6.9
2017-11-10T12:02:17.106Z,7.0
2017-11-10T12:07:03.528Z,7.0
2017-11-10T12:12:03.261Z,7.0
2017-11-10T12:17:18.445Z,7.0
2017-11-10T12:22:03.399Z,7.1
2017-11-10T12:27:02.863Z,7.2
2017-11-10T12:32:13.780Z,7.2
2017-11-10T12:37:02.944Z,7.2
2017-11-10T12:42:03.463Z,7.2
2017-11-10T12:47:13.212Z,7.2
2017-11-10T12:52:02.650Z,7.2
2017-11-10T12:57:03.113Z,7.2
2017-11-10T13:02:13.978Z,7.2
2017-11-10T13:07:03.568Z,7.2
2017-11-10T13:12:03.177Z,7.2
2017-11-10T13:17:14.018Z,7.2
2017-11-10T13:22:03.090Z,7.2
2017-11-10T13:27:04.267Z,7.2
2017-11-10T13:32:10.249Z,7.2
2017-11-10T13:37:02.892Z,7.1
2017-11-10T13:42:03.344Z,7.4
2017-11-10T13:47:12.047Z,7.7
2017-11-10T13:52:03.496Z,7.7
2017-11-10T13:57:02.944Z,7.6
2017-11-10T14:02:16.724Z,7.5
2017-11-10T14:07:03.246Z,7.4
2017-11-10T14:12:02.753Z,7.4
2017-11-10T14:17:13.695Z,7.3
2017-11-10T14:22:02.904Z,7.3
2017-11-10T14:27:03.355Z,7.3
2017-11-10T14:32:06.997Z,7.3
2017-11-10T14:37:02.947Z,7.3
2017-11-10T14:42:03.248Z,7.3
2017-11-10T14:47:09.843Z,7.3
2017-11-10T14:52:03.347Z,7.3
2017-11-10T14:57:02.708Z,7.3
2017-11-10T15:02:12.197Z,7.3
2017-11-10T15:07:03.548Z,7.3
2017-11-10T15:12:03.149Z,7.2
2017-11-10T15:17:14.154Z,7.3
2017-11-10T15:22:03.645Z,7.3
2017-11-10T15:27:03.064Z,7.3
2017-11-10T15:32:13.925Z,7.2
2017-11-10T15:37:03.515Z,7.2
2017-11-10T15:42:03.003Z,7.2
2017-11-10T15:47:13.401Z,7.2
2017-11-10T15:52:02.880Z,7.2
2017-11-10T15:57:02.691Z,7.1
2017-11-10T16:02:13.381Z,7.1
2017-11-10T16:07:03.201Z,7.0
2017-11-10T16:12:02.842Z,7.0
2017-11-10T16:17:11.641Z,7.0
2017-11-10T16:22:03.104Z,6.9
2017-11-10T16:27:03.509Z,6.8
2017-11-10T16:32:06.281Z,6.8
2017-11-10T16:37:03.211Z,6.8
2017-11-10T16:42:03.603Z,6.8
2017-11-10T16:47:03.021Z,6.8
2017-11-10T16:52:03.214Z,6.7
2017-11-10T16:57:03.549Z,6.7
2017-11-10T17:02:03.006Z,6.7
2017-11-10T17:07:03.290Z,6.7
2017-11-10T17:12:02.833Z,6.7
2017-11-10T17:17:03.204Z,6.8
2017-11-10T17:22:03.524Z,6.8
2017-11-10T17:27:02.883Z,6.8
2017-11-10T17:32:03.176Z,6.8
2017-11-10T17:37:03.475Z,6.8
2017-11-10T17:42:02.754Z,6.8
2017-11-10T17:47:03.054Z,6.8
2017-11-10T17:52:03.328Z,6.7
2017-11-10T17:57:02.649Z,6.8
2017-11-10T18:02:02.967Z,6.8
2017-11-10T18:07:03.343Z,6.8
2017-11-10T18:12:02.851Z,6.9
2017-11-10T18:17:03.209Z,6.9
2017-11-10T18:22:09.691Z,6.9
2017-11-10T18:27:02.708Z,6.9
2017-11-10T18:32:03.056Z,7.0
2017-11-10T18:37:03.362Z,7.0
2017-11-10T18:42:03.598Z,7.1
2017-11-10T18:47:03.196Z,7.2
2017-11-10T18:52:03.279Z,7.1
2017-11-10T18:57:03.524Z,7.2
2017-11-10T19:02:02.917Z,7.1
2017-11-10T19:07:03.309Z,7.1
2017-11-10T19:12:02.768Z,7.1
2017-11-10T19:17:03.159Z,7.1
2017-11-10T19:22:03.420Z,7.1
2017-11-10T19:27:02.766Z,7.1
2017-11-10T19:32:03.128Z,7.1
2017-11-10T19:37:03.384Z,7.1
2017-11-10T19:42:02.694Z,7.1
2017-11-10T19:47:02.979Z,7.1
2017-11-10T19:52:03.205Z,7.2
2017-11-10T19:57:03.568Z,7.3
2017-11-10T20:02:02.915Z,7.3
2017-11-10T20:07:03.391Z,7.3
2017-11-10T20:12:02.836Z,7.3
2017-11-10T20:17:03.158Z,7.3
2017-11-10T20:22:03.441Z,7.2
2017-11-10T20:27:02.798Z,7.3
2017-11-10T20:32:03.105Z,7.3
2017-11-10T20:37:03.386Z,7.3
2017-11-10T20:42:03.633Z,7.4
2017-11-10T20:47:02.904Z,7.4
2017-11-10T20:52:03.252Z,7.4
2017-11-10T20:57:03.511Z,7.4
2017-11-10T21:02:03.006Z,7.5
2017-11-10T21:07:03.199Z,7.5
2017-11-10T21:12:03.630Z,7.5
2017-11-10T21:17:03.174Z,7.5
2017-11-10T21:22:03.380Z,7.5
2017-11-10T21:27:03.664Z,7.5
2017-11-10T21:32:03.032Z,7.5
2017-11-10T21:37:03.235Z,7.5
2017-11-10T21:42:03.471Z,7.5
2017-11-10T21:47:02.866Z,7.6
2017-11-10T21:52:03.113Z,7.6
2017-11-10T21:57:03.314Z,7.6
2017-11-10T22:02:02.651Z,7.7
2017-11-10T22:07:03.146Z,7.7
2017-11-10T22:12:03.436Z,7.7
2017-11-10T22:17:02.961Z,7.7
2017-11-10T22:22:03.211Z,7.8
2017-11-10T22:27:03.479Z,7.8
2017-11-10T22:32:02.803Z,7.8
2017-11-10T22:37:03.068Z,7.9
2017-11-10T22:42:03.333Z,7.9
2017-11-10T22:47:03.674Z,7.9
2017-11-10T22:52:02.991Z,8.0
2017-11-10T22:57:03.284Z,8.0
2017-11-10T23:02:02.695Z,8.1
2017-11-10T23:07:03.037Z,8.2
2017-11-10T23:12:03.428Z,8.1
2017-11-10T23:22:03.581Z,8.1
2017-11-10T23:27:03.214Z,8.1
2017-11-10T23:32:03.183Z,8.1
2017-11-10T23:37:03.311Z,8.1
2017-11-10T23:42:03.230Z,8.2
2017-11-10T23:47:03.072Z,8.1
2017-11-10T23:52:02.680Z,8.1
2017-11-10T23:57:02.661Z,8.1
